Hays Regional Airport Hays US
ICAO: KHYS
IATA: HYS
Category: Medium
Scheduled Services: No

Elevation: 1999 ft
TransAlt. 18000 ft.

Airport Communications:
AWOS 3:125.525
KANSAS CITY CNTR:124.4
WICHITA RDO:122.3
CTAF/UNICOM:122.8

KHYS Zoom In..

If you have problems with the map follow the link
https://www.worldairports.se/pages/airport.php?
ICAO=KHYS

Runways:

(A) RW 04 length 4501 ft width 75 ft
---- / hdg 40

(B) RW 16 length 6501 ft width 100 ft
---- / hdg 159

(C) RW 22 length 4501 ft width 75 ft
---- / hdg 220

(D) RW 34 length 6501 ft width 100 ft
ILS 111.50 / hdg 339

Location; KHYS
Day. 22 / Time. 15.56 Zulu
* Altimeter: 30.06
* Temperature: 00° c. 32°f.
* Wind from: 110° Speed 11 kn.
Dewpoint: -02° c.
Visibility: 9 Statute Miles.
Clouds: Overcast 1900 ft.

KHYS 221556Z AUTO 11011KT 9SM OVC019 00/M02 A3006 RMK AO2 SLP199 T00001017 FZRANO


Wind From 110°
Speed 11 kn.

 
 
jpsmedia.com for Web Design worldairports.se 2019   terms of use